createdAt,value
2019-04-14T00:01:02.225Z,3.10
2019-04-14T00:06:05.419Z,3.10
2019-04-14T00:11:06.612Z,3.10
2019-04-14T00:16:07.926Z,3.00
2019-04-14T00:21:09.045Z,3.00
2019-04-14T00:26:25.506Z,3.00
2019-04-14T00:31:28.549Z,2.90
2019-04-14T00:36:43.850Z,2.90
2019-04-14T00:41:50.880Z,2.80
2019-04-14T00:46:51.903Z,2.80
2019-04-14T00:51:53.018Z,2.80
2019-04-14T00:56:54.226Z,2.80
2019-04-14T01:01:55.379Z,3.40
2019-04-14T01:06:57.589Z,2.90
2019-04-14T01:11:59.511Z,3.20
2019-04-14T01:17:00.702Z,2.70
2019-04-14T01:22:03.195Z,2.60
2019-04-14T01:27:05.944Z,2.60
2019-04-14T01:32:07.299Z,3.20
2019-04-14T01:37:09.307Z,2.60
2019-04-14T01:42:11.581Z,2.50
2019-04-14T01:47:13.758Z,2.60
2019-04-14T01:52:20.941Z,3.10
2019-04-14T01:57:24.286Z,2.60
2019-04-14T02:02:27.399Z,2.60
2019-04-14T02:07:29.663Z,2.60
2019-04-14T02:12:30.895Z,2.70
2019-04-14T02:17:32.766Z,2.60
2019-04-14T02:22:35.479Z,2.60
2019-04-14T02:27:36.784Z,2.60
2019-04-14T02:33:07.724Z,2.60
2019-04-14T02:38:18.294Z,2.60
2019-04-14T02:43:21.113Z,2.70
2019-04-14T02:48:29.157Z,2.60
2019-04-14T02:53:32.574Z,2.60
2019-04-14T02:58:28.651Z,2.60
2019-04-14T03:03:27.831Z,2.70
2019-04-14T03:08:29.424Z,2.60
2019-04-14T03:13:28.777Z,2.70
2019-04-14T03:18:44.012Z,2.60
2019-04-14T03:23:56.292Z,2.50
2019-04-14T03:28:58.868Z,2.50
2019-04-14T03:34:26.761Z,2.90
2019-04-14T03:39:06.078Z,2.50
2019-04-14T03:49:17.942Z,2.50
2019-04-14T03:54:15.438Z,2.50
2019-04-14T03:58:57.601Z,2.50
2019-04-14T04:03:58.955Z,2.50
2019-04-14T04:09:00.050Z,2.60
2019-04-14T04:14:01.439Z,2.60
2019-04-14T04:19:13.014Z,2.40
2019-04-14T04:24:12.863Z,2.40
2019-04-14T04:29:20.015Z,2.40
2019-04-14T04:34:42.354Z,2.40
2019-04-14T04:39:58.253Z,2.40
2019-04-14T04:44:59.601Z,3.80
2019-04-14T04:50:02.284Z,2.30
2019-04-14T04:55:04.616Z,2.40
2019-04-14T05:00:07.098Z,2.60
2019-04-14T05:05:47.057Z,2.40
2019-04-14T05:10:50.337Z,2.40
2019-04-14T05:15:53.227Z,3.40
2019-04-14T05:20:55.411Z,3.20
2019-04-14T05:25:57.871Z,2.50
2019-04-14T05:30:59.353Z,2.50
2019-04-14T05:36:00.457Z,2.60
2019-04-14T05:41:02.656Z,2.60
2019-04-14T05:46:03.980Z,2.70
2019-04-14T05:51:06.280Z,3.00
2019-04-14T05:56:07.978Z,2.90
2019-04-14T06:01:11.226Z,3.80
2019-04-14T06:06:12.561Z,3.10
2019-04-14T06:11:13.661Z,3.10
2019-04-14T06:16:14.764Z,3.80
2019-04-14T06:21:15.865Z,3.10
2019-04-14T06:26:16.990Z,3.30
2019-04-14T06:31:32.092Z,3.20
2019-04-14T06:36:35.093Z,3.20
2019-04-14T06:41:36.208Z,3.20
2019-04-14T06:46:37.297Z,3.30
2019-04-14T06:51:38.388Z,3.70
2019-04-14T06:56:39.480Z,3.90
2019-04-14T07:01:40.560Z,3.80
2019-04-14T07:06:41.650Z,4.10
2019-04-14T07:11:42.764Z,3.90
2019-04-14T07:16:43.833Z,4.30
2019-04-14T07:21:44.932Z,4.80
2019-04-14T07:26:46.063Z,4.80
2019-04-14T07:31:49.059Z,5.10
2019-04-14T07:37:01.119Z,5.10
2019-04-14T07:42:19.172Z,5.20
2019-04-14T07:47:35.427Z,5.30
2019-04-14T07:52:38.438Z,5.60
2019-04-14T07:57:53.603Z,5.90
2019-04-14T08:03:08.859Z,6.00
2019-04-14T08:08:11.474Z,6.50
2019-04-14T08:13:12.563Z,6.20
2019-04-14T08:18:13.662Z,6.30
2019-04-14T08:23:14.780Z,6.20
2019-04-14T08:28:15.886Z,6.60
2019-04-14T08:33:16.991Z,7.00
2019-04-14T08:38:18.084Z,7.00
2019-04-14T08:43:21.247Z,7.10
2019-04-14T08:48:36.325Z,6.70
2019-04-14T08:53:45.117Z,7.50
2019-04-14T08:58:57.271Z,8.80
2019-04-14T09:04:00.301Z,9.90
2019-04-14T09:09:12.407Z,10.80
2019-04-14T09:14:13.601Z,11.90
2019-04-14T09:19:14.696Z,12.70
2019-04-14T09:24:15.794Z,12.90
2019-04-14T09:29:16.914Z,12.00
2019-04-14T09:34:18.007Z,11.60
2019-04-14T09:39:19.100Z,12.00
2019-04-14T09:44:20.227Z,11.50
2019-04-14T09:49:21.332Z,11.10
2019-04-14T09:54:22.428Z,11.10
2019-04-14T09:59:23.537Z,11.70
2019-04-14T10:04:24.643Z,12.60
2019-04-14T10:09:26.387Z,13.60
2019-04-14T10:14:27.651Z,14.30
2019-04-14T10:19:28.754Z,12.50
2019-04-14T10:24:29.869Z,13.20
2019-04-14T10:29:31.003Z,14.10
2019-04-14T10:34:32.208Z,14.40
2019-04-14T10:39:33.306Z,13.00
2019-04-14T10:44:34.438Z,12.20
2019-04-14T10:49:35.528Z,11.60
2019-04-14T10:54:36.629Z,12.10
2019-04-14T10:59:37.727Z,11.70
2019-04-14T11:04:38.853Z,12.20
2019-04-14T11:09:39.965Z,12.10
2019-04-14T11:14:41.167Z,11.70
2019-04-14T11:19:42.244Z,11.20
2019-04-14T11:24:43.351Z,11.80
2019-04-14T11:29:44.538Z,13.20
2019-04-14T11:34:47.679Z,13.80
2019-04-14T11:39:48.817Z,14.50
2019-04-14T11:44:50.120Z,14.40
2019-04-14T11:49:51.226Z,14.70
2019-04-14T11:54:52.549Z,15.30
2019-04-14T11:59:55.567Z,14.90
2019-04-14T12:05:12.720Z,14.40
2019-04-14T12:10:13.921Z,12.70
2019-04-14T12:15:16.601Z,11.60
2019-04-14T12:20:18.031Z,11.20
2019-04-14T12:25:19.132Z,11.10
2019-04-14T12:30:20.354Z,11.10
2019-04-14T12:35:21.756Z,11.30
2019-04-14T12:40:22.983Z,11.40
2019-04-14T12:45:28.760Z,11.80
2019-04-14T12:50:34.540Z,12.30
2019-04-14T12:55:35.716Z,13.00
2019-04-14T13:00:44.901Z,12.80
2019-04-14T13:05:46.128Z,12.50
2019-04-14T13:10:47.328Z,12.50
2019-04-14T13:15:48.534Z,12.30
2019-04-14T13:20:49.649Z,12.50
2019-04-14T13:25:50.755Z,12.80
2019-04-14T13:30:52.784Z,13.80
2019-04-14T13:35:53.916Z,14.20
2019-04-14T13:40:55.133Z,14.50
2019-04-14T13:45:59.761Z,13.90
2019-04-14T13:51:00.110Z,13.10
2019-04-14T13:56:01.330Z,13.10
2019-04-14T14:01:02.754Z,13.20
2019-04-14T14:06:03.967Z,13.80
2019-04-14T14:11:25.303Z,14.50
2019-04-14T14:16:34.575Z,16.70
2019-04-14T14:21:46.891Z,18.70
2019-04-14T14:26:49.899Z,20.30
2019-04-14T14:31:51.746Z,21.80
2019-04-14T14:36:52.844Z,19.30
2019-04-14T14:41:54.218Z,16.80
2019-04-14T14:47:09.299Z,14.90
2019-04-14T14:52:12.398Z,14.40
2019-04-14T14:57:13.512Z,17.50
2019-04-14T15:02:14.736Z,19.30
2019-04-14T15:07:15.844Z,17.90
2019-04-14T15:12:16.971Z,16.10
2019-04-14T15:17:18.775Z,14.60
2019-04-14T15:22:19.922Z,13.50
2019-04-14T15:27:21.155Z,13.40
2019-04-14T15:32:22.280Z,13.00
2019-04-14T15:37:23.429Z,12.70
2019-04-14T15:42:24.969Z,12.80
2019-04-14T15:47:26.055Z,12.90
2019-04-14T15:52:27.185Z,12.70
2019-04-14T15:57:45.700Z,11.20
2019-04-14T16:02:51.533Z,11.90
2019-04-14T16:07:54.548Z,11.60
2019-04-14T16:13:09.389Z,11.40
2019-04-14T16:18:21.469Z,11.30
2019-04-14T16:23:22.754Z,11.30
2019-04-14T16:28:35.053Z,11.50
2019-04-14T16:33:38.119Z,11.30
2019-04-14T16:38:39.327Z,11.00
2019-04-14T16:43:40.703Z,10.50
2019-04-14T16:48:41.884Z,10.80
2019-04-14T16:53:45.053Z,12.30
2019-04-14T16:58:54.182Z,14.00
2019-04-14T17:03:55.331Z,13.60
2019-04-14T17:08:56.424Z,12.70
2019-04-14T17:14:00.397Z,12.80
2019-04-14T17:19:03.583Z,12.90
2019-04-14T17:24:16.354Z,12.70
2019-04-14T17:29:11.782Z,12.60
2019-04-14T17:34:20.665Z,12.20
2019-04-14T17:39:32.472Z,11.70
2019-04-14T17:44:38.362Z,10.60
2019-04-14T17:49:41.397Z,9.70
2019-04-14T17:54:56.355Z,8.70
2019-04-14T18:00:15.936Z,7.90
2019-04-14T18:05:19.077Z,7.30
2019-04-14T18:10:22.107Z,6.70
2019-04-14T18:15:25.258Z,6.10
2019-04-14T18:20:28.351Z,5.80
2019-04-14T18:25:29.483Z,5.50
2019-04-14T18:30:32.642Z,5.20
2019-04-14T18:35:54.197Z,6.00
2019-04-14T18:41:15.619Z,5.80
2019-04-14T18:46:21.962Z,4.80
2019-04-14T18:51:24.987Z,4.60
2019-04-14T18:56:31.126Z,4.30
2019-04-14T19:01:34.488Z,4.10
2019-04-14T19:06:35.886Z,4.10
2019-04-14T19:11:54.625Z,4.10
2019-04-14T19:17:04.039Z,4.00
2019-04-14T19:22:05.830Z,4.10
2019-04-14T19:27:07.094Z,4.00
2019-04-14T19:32:08.600Z,3.90
2019-04-14T19:37:09.713Z,4.00
2019-04-14T19:42:10.861Z,3.80
2019-04-14T19:47:11.990Z,3.60
2019-04-14T19:52:13.347Z,3.40
2019-04-14T19:57:14.445Z,3.20
2019-04-14T20:02:15.672Z,3.20
2019-04-14T20:07:16.775Z,2.60
2019-04-14T20:12:18.186Z,2.50
2019-04-14T20:17:27.419Z,3.00
2019-04-14T20:22:47.191Z,2.30
2019-04-14T20:27:53.179Z,2.30
2019-04-14T20:32:54.409Z,3.10
2019-04-14T20:37:56.015Z,2.10
2019-04-14T20:42:57.137Z,1.90
2019-04-14T20:47:58.227Z,1.80
2019-04-14T20:52:59.339Z,1.60
2019-04-14T20:58:00.451Z,1.40
2019-04-14T21:03:12.297Z,1.40
2019-04-14T21:08:26.943Z,1.30
2019-04-14T21:13:30.162Z,1.20
2019-04-14T21:18:33.168Z,1.10
2019-04-14T21:23:45.812Z,1.20
2019-04-14T21:29:07.042Z,1.70
2019-04-14T21:34:10.076Z,1.10
2019-04-14T21:39:13.199Z,1.00
2019-04-14T21:44:14.335Z,0.90
2019-04-14T21:49:15.423Z,0.90
2019-04-14T21:54:17.321Z,0.80
2019-04-14T21:59:23.088Z,0.80
2019-04-14T22:04:32.352Z,0.80
2019-04-14T22:09:35.375Z,0.80
2019-04-14T22:14:36.557Z,0.90
2019-04-14T22:19:37.651Z,0.80
2019-04-14T22:24:38.756Z,0.70
2019-04-14T22:29:39.886Z,0.70
2019-04-14T22:34:40.992Z,0.70
2019-04-14T22:39:42.072Z,0.70
2019-04-14T22:44:43.291Z,0.60
2019-04-14T22:49:44.393Z,0.60
2019-04-14T22:54:45.494Z,0.70
2019-04-14T22:59:46.691Z,0.80
2019-04-14T23:04:49.703Z,0.90
2019-04-14T23:09:52.692Z,1.00
2019-04-14T23:14:55.697Z,1.00
2019-04-14T23:20:10.643Z,1.10
2019-04-14T23:25:11.937Z,1.20
2019-04-14T23:30:13.567Z,1.10
2019-04-14T23:35:14.747Z,1.00
2019-04-14T23:40:15.933Z,0.90
2019-04-14T23:45:17.047Z,0.70
2019-04-14T23:50:18.250Z,0.50
2019-04-14T23:55:19.452Z,0.60
